Hiyodori — JD2366 — position and weather

sailwx.info

Track history (hours):
 
Tides and Currents Weather Stations Pressure Air Temp Water Temp Dewpoint Dewpoint Depression Visibility Wind Speed Wind Dir Waves Ship Positions

Hiyodori

Last reported at 2015-Jul-04 01:33 UTC. Time now 2015-Jul-04 01:40 UTC.
Position N 34°60' E 139°36'.

Length 88 m; draft 3.6 m.

Type: Cargo ship. MMSI: 431000132.

Date/timePositionNaut miles runAvg speedWind from/ knotsBaromVisibWave heightAir tempDewpointWater temp
2015-Jul-04 01:33N 34°60' E 139°36'1514.2
2015-Jul-04 00:32N 34°50' E 139°23'  
2015-Jun-30 07:31N 35°00' E 139°29'1212.0
2015-Jun-30 06:33N 35°06' E 139°41'1110.6
2015-Jun-30 05:33N 35°16' E 139°45'1111.2
2015-Jun-30 04:33N 35°27' E 139°43'0 0.3
2015-Jun-30 03:33N 35°27' E 139°43'1 0.8
2015-Jun-30 02:33N 35°26' E 139°43'0 0.0
2015-Jun-30 01:33N 35°26' E 139°43'3 2.9
2015-Jun-30 00:33N 35°24' E 139°41'0 0.0
2015-Jun-29 23:33N 35°24' E 139°41'1 1.2
2015-Jun-29 22:34N 35°23' E 139°40'0 0.1
2015-Jun-29 21:33N 35°23' E 139°40'0 0.0
2015-Jun-29 20:33N 35°23' E 139°40'0 0.0
2015-Jun-29 19:33N 35°23' E 139°40'0 0.0
2015-Jun-29 18:33N 35°23' E 139°40'9 8.6
2015-Jun-29 17:33N 35°16' E 139°46'1212.1
2015-Jun-29 16:33N 35°05' E 139°42'241 7.1
2015-Jun-28 06:32N 34°03' E 134°60'1312.8
2015-Jun-28 05:32N 34°15' E 134°59'1212.4
2015-Jun-28 04:33N 34°26' E 135°06'1212.4
2015-Jun-28 03:33N 34°36' E 135°15'5 5.4
2015-Jun-28 02:33N 34°41' E 135°13'0 0.0
2015-Jun-28 01:33N 34°41' E 135°13'0 0.0
2015-Jun-28 00:33N 34°41' E 135°13'0 0.0
2015-Jun-27 23:33N 34°41' E 135°13'0 0.0
2015-Jun-27 22:33N 34°41' E 135°13'0 0.0
2015-Jun-27 21:33N 34°41' E 135°13'0 0.0
2015-Jun-27 20:33N 34°41' E 135°13'0 0.0
2015-Jun-27 19:33N 34°41' E 135°13'0 0.0
2015-Jun-27 18:33N 34°41' E 135°13'0 0.0
2015-Jun-27 17:33N 34°41' E 135°13'0 0.0
2015-Jun-27 16:33N 34°41' E 135°13'0 0.0
2015-Jun-27 15:33N 34°41' E 135°13'0 0.0
2015-Jun-27 14:33N 34°41' E 135°13'0 0.0
2015-Jun-27 13:33N 34°41' E 135°13'0 0.0
2015-Jun-27 12:33N 34°41' E 135°13'0 0.0
2015-Jun-27 11:33N 34°41' E 135°13'0 0.0
2015-Jun-27 10:33N 34°41' E 135°13'0 0.0
2015-Jun-27 09:33N 34°41' E 135°13'0 0.0
2015-Jun-27 08:33N 34°41' E 135°13'0 0.0
2015-Jun-27 07:33N 34°41' E 135°13'0 0.0
2015-Jun-27 06:33N 34°41' E 135°13'0 0.0
2015-Jun-27 05:33N 34°41' E 135°13'0 0.0
2015-Jun-27 04:33N 34°41' E 135°13'0 0.0
2015-Jun-27 03:33N 34°41' E 135°13'0 0.0
2015-Jun-27 02:33N 34°41' E 135°13'0 0.2
2015-Jun-27 01:33N 34°41' E 135°13'4 3.6
2015-Jun-27 00:33N 34°41' E 135°17'0 0.0
2015-Jun-26 23:33N 34°41' E 135°17'0 0.0
2015-Jun-26 22:33N 34°41' E 135°17'0 0.0
2015-Jun-26 21:33N 34°41' E 135°17'0 0.0
2015-Jun-26 20:33N 34°41' E 135°17'0 0.0
2015-Jun-26 19:33N 34°41' E 135°17'0 0.0
2015-Jun-26 18:33N 34°41' E 135°17'0 0.0
2015-Jun-26 17:33N 34°41' E 135°17'0 0.0
2015-Jun-26 16:33N 34°41' E 135°17'0 0.0
2015-Jun-26 15:33N 34°41' E 135°17'8 7.5
2015-Jun-26 14:33N 34°34' E 135°15'2411.9
2015-Jun-26 12:33N 34°14' E 134°60'1313.0
2015-Jun-26 11:33N 34°01' E 135°00'23210.5
2015-Jun-25 13:27N 35°02' E 139°32'1112.6
2015-Jun-25 12:33N 35°09' E 139°43'1111.0
2015-Jun-25 11:33N 35°20' E 139°42'4 4.3
2015-Jun-25 10:33N 35°24' E 139°41'1 0.7
2015-Jun-25 09:33N 35°23' E 139°41'2 2.0
2015-Jun-25 08:33N 35°23' E 139°43'0 0.1
2015-Jun-25 07:33N 35°23' E 139°43'0 0.0
2015-Jun-25 06:33N 35°23' E 139°43'0 0.0
2015-Jun-25 05:33N 35°23' E 139°43'0 0.0
2015-Jun-25 04:33N 35°23' E 139°43'0 0.0
2015-Jun-25 03:33N 35°23' E 139°43'0 0.0
2015-Jun-25 02:33N 35°23' E 139°43'0 0.0
2015-Jun-25 01:33N 35°23' E 139°43'0 0.0
2015-Jun-25 00:33N 35°23' E 139°43'0 0.0
2015-Jun-24 23:33N 35°23' E 139°43'0 0.0
2015-Jun-24 22:33N 35°23' E 139°43'0 0.0
2015-Jun-24 21:33N 35°23' E 139°43'0 0.0
2015-Jun-24 20:33N 35°23' E 139°43'0 0.0
2015-Jun-24 19:33N 35°23' E 139°43'1 0.5
2015-Jun-24 18:33N 35°22' E 139°43'1111.1
2015-Jun-24 17:33N 35°11' E 139°46'1212.0
2015-Jun-24 16:33N 35°01' E 139°38'  
Track history (hours):
 
Tides and Currents Weather Stations Pressure Air Temp Water Temp Dewpoint Dewpoint Depression Visibility Wind Speed Wind Dir Waves Ship Positions

Hiyodori

Last reported at 2015-Jul-04 01:33 UTC. Time now 2015-Jul-04 01:40 UTC.
Position N 34°60' E 139°36'.

Length 88 m; draft 3.6 m.

Type: Cargo ship. MMSI: 431000132.

Date/timePositionNaut miles runAvg speedWind from/ knotsBaromVisibWave heightAir tempDewpointWater temp
2015-Jul-04 01:33N 34°60' E 139°36'1514.2
2015-Jul-04 00:32N 34°50' E 139°23'  
2015-Jun-30 07:31N 35°00' E 139°29'1212.0
2015-Jun-30 06:33N 35°06' E 139°41'1110.6
2015-Jun-30 05:33N 35°16' E 139°45'1111.2
2015-Jun-30 04:33N 35°27' E 139°43'0 0.3
2015-Jun-30 03:33N 35°27' E 139°43'1 0.8
2015-Jun-30 02:33N 35°26' E 139°43'0 0.0
2015-Jun-30 01:33N 35°26' E 139°43'3 2.9
2015-Jun-30 00:33N 35°24' E 139°41'0 0.0
2015-Jun-29 23:33N 35°24' E 139°41'1 1.2
2015-Jun-29 22:34N 35°23' E 139°40'0 0.1
2015-Jun-29 21:33N 35°23' E 139°40'0 0.0
2015-Jun-29 20:33N 35°23' E 139°40'0 0.0
2015-Jun-29 19:33N 35°23' E 139°40'0 0.0
2015-Jun-29 18:33N 35°23' E 139°40'9 8.6
2015-Jun-29 17:33N 35°16' E 139°46'1212.1
2015-Jun-29 16:33N 35°05' E 139°42'241 7.1
2015-Jun-28 06:32N 34°03' E 134°60'1312.8
2015-Jun-28 05:32N 34°15' E 134°59'1212.4
2015-Jun-28 04:33N 34°26' E 135°06'1212.4
2015-Jun-28 03:33N 34°36' E 135°15'5 5.4
2015-Jun-28 02:33N 34°41' E 135°13'0 0.0
2015-Jun-28 01:33N 34°41' E 135°13'0 0.0
2015-Jun-28 00:33N 34°41' E 135°13'0 0.0
2015-Jun-27 23:33N 34°41' E 135°13'0 0.0
2015-Jun-27 22:33N 34°41' E 135°13'0 0.0
2015-Jun-27 21:33N 34°41' E 135°13'0 0.0
2015-Jun-27 20:33N 34°41' E 135°13'0 0.0
2015-Jun-27 19:33N 34°41' E 135°13'0 0.0
2015-Jun-27 18:33N 34°41' E 135°13'0 0.0
2015-Jun-27 17:33N 34°41' E 135°13'0 0.0
2015-Jun-27 16:33N 34°41' E 135°13'0 0.0
2015-Jun-27 15:33N 34°41' E 135°13'0 0.0
2015-Jun-27 14:33N 34°41' E 135°13'0 0.0
2015-Jun-27 13:33N 34°41' E 135°13'0 0.0
2015-Jun-27 12:33N 34°41' E 135°13'0 0.0
2015-Jun-27 11:33N 34°41' E 135°13'0 0.0
2015-Jun-27 10:33N 34°41' E 135°13'0 0.0
2015-Jun-27 09:33N 34°41' E 135°13'0 0.0
2015-Jun-27 08:33N 34°41' E 135°13'0 0.0
2015-Jun-27 07:33N 34°41' E 135°13'0 0.0
2015-Jun-27 06:33N 34°41' E 135°13'0 0.0
2015-Jun-27 05:33N 34°41' E 135°13'0 0.0
2015-Jun-27 04:33N 34°41' E 135°13'0 0.0
2015-Jun-27 03:33N 34°41' E 135°13'0 0.0
2015-Jun-27 02:33N 34°41' E 135°13'0 0.2
2015-Jun-27 01:33N 34°41' E 135°13'4 3.6
2015-Jun-27 00:33N 34°41' E 135°17'0 0.0
2015-Jun-26 23:33N 34°41' E 135°17'0 0.0
2015-Jun-26 22:33N 34°41' E 135°17'0 0.0
2015-Jun-26 21:33N 34°41' E 135°17'0 0.0
2015-Jun-26 20:33N 34°41' E 135°17'0 0.0
2015-Jun-26 19:33N 34°41' E 135°17'0 0.0
2015-Jun-26 18:33N 34°41' E 135°17'0 0.0
2015-Jun-26 17:33N 34°41' E 135°17'0 0.0
2015-Jun-26 16:33N 34°41' E 135°17'0 0.0
2015-Jun-26 15:33N 34°41' E 135°17'8 7.5
2015-Jun-26 14:33N 34°34' E 135°15'2411.9
2015-Jun-26 12:33N 34°14' E 134°60'1313.0
2015-Jun-26 11:33N 34°01' E 135°00'23210.5
2015-Jun-25 13:27N 35°02' E 139°32'1112.6
2015-Jun-25 12:33N 35°09' E 139°43'1111.0
2015-Jun-25 11:33N 35°20' E 139°42'4 4.3
2015-Jun-25 10:33N 35°24' E 139°41'1 0.7
2015-Jun-25 09:33N 35°23' E 139°41'2 2.0
2015-Jun-25 08:33N 35°23' E 139°43'0 0.1
2015-Jun-25 07:33N 35°23' E 139°43'0 0.0
2015-Jun-25 06:33N 35°23' E 139°43'0 0.0
2015-Jun-25 05:33N 35°23' E 139°43'0 0.0
2015-Jun-25 04:33N 35°23' E 139°43'0 0.0
2015-Jun-25 03:33N 35°23' E 139°43'0 0.0
2015-Jun-25 02:33N 35°23' E 139°43'0 0.0
2015-Jun-25 01:33N 35°23' E 139°43'0 0.0
2015-Jun-25 00:33N 35°23' E 139°43'0 0.0
2015-Jun-24 23:33N 35°23' E 139°43'0 0.0
2015-Jun-24 22:33N 35°23' E 139°43'0 0.0
2015-Jun-24 21:33N 35°23' E 139°43'0 0.0
2015-Jun-24 20:33N 35°23' E 139°43'0 0.0
2015-Jun-24 19:33N 35°23' E 139°43'1 0.5
2015-Jun-24 18:33N 35°22' E 139°43'1111.1
2015-Jun-24 17:33N 35°11' E 139°46'1212.0
2015-Jun-24 16:33N 35°01' E 139°38'  

Dump ship's entire track history